createdAt,value
2019-01-02T00:01:01.603Z,100580.73
2019-01-02T00:03:41.574Z,100577.00
2019-01-02T00:06:22.990Z,100586.74
2019-01-02T00:08:58.612Z,100586.58
2019-01-02T00:11:35.910Z,100585.48
2019-01-02T00:14:10.698Z,100577.14
2019-01-02T00:16:50.752Z,100579.09
2019-01-02T00:19:21.845Z,100579.42
2019-01-02T00:21:57.543Z,100583.98
2019-01-02T00:24:52.282Z,100589.91
2019-01-02T00:27:42.644Z,100593.20
2019-01-02T00:30:41.375Z,100584.25
2019-01-02T00:33:23.503Z,100590.45
2019-01-02T00:35:57.041Z,100583.49
2019-01-02T00:38:28.830Z,100597.84
2019-01-02T00:41:04.402Z,100595.77
2019-01-02T00:43:45.958Z,100605.02
2019-01-02T00:46:30.446Z,100594.28
2019-01-02T00:49:08.631Z,100600.26
2019-01-02T00:51:42.491Z,100609.25
2019-01-02T00:54:34.375Z,100596.80
2019-01-02T00:57:08.352Z,100598.80
2019-01-02T00:59:48.078Z,100608.59
2019-01-02T01:02:19.857Z,100608.28
2019-01-02T01:05:19.253Z,100613.02
2019-01-02T01:07:55.209Z,100611.81
2019-01-02T01:10:44.135Z,100617.09
2019-01-02T01:13:55.095Z,100607.58
2019-01-02T01:16:30.085Z,100620.69
2019-01-02T01:19:06.541Z,100628.95
2019-01-02T01:21:44.491Z,100647.23
2019-01-02T01:24:18.034Z,100636.38
2019-01-02T01:26:53.711Z,100639.76
2019-01-02T01:29:25.239Z,100634.91
2019-01-02T01:31:59.153Z,100643.91
2019-01-02T01:34:40.864Z,100644.94
2019-01-02T01:37:13.364Z,100656.15
2019-01-02T01:39:46.375Z,100647.64
2019-01-02T01:42:20.853Z,100653.45
2019-01-02T01:44:54.118Z,100660.68
2019-01-02T01:47:31.854Z,100662.09
2019-01-02T01:50:05.206Z,100658.34
2019-01-02T01:53:02.594Z,100666.45
2019-01-02T01:55:38.432Z,100676.14
2019-01-02T01:58:10.094Z,100667.77
2019-01-02T02:00:50.936Z,100672.34
2019-01-02T02:03:24.489Z,100672.38
2019-01-02T02:06:01.309Z,100677.45
2019-01-02T02:08:36.976Z,100672.47
2019-01-02T02:11:10.895Z,100683.34
2019-01-02T02:13:53.251Z,100674.94
2019-01-02T02:16:29.820Z,100680.31
2019-01-02T02:19:03.280Z,100681.11
2019-01-02T02:21:35.466Z,100670.48
2019-01-02T02:24:08.288Z,100675.52
2019-01-02T02:26:42.009Z,100671.08
2019-01-02T02:29:17.260Z,100673.65
2019-01-02T02:31:53.822Z,100675.41
2019-01-02T02:34:28.207Z,100677.76
2019-01-02T02:37:00.527Z,100673.53
2019-01-02T02:39:33.691Z,100678.67
2019-01-02T02:42:10.300Z,100687.91
2019-01-02T02:44:44.447Z,100699.74
2019-01-02T02:47:17.237Z,100691.52
2019-01-02T02:49:55.970Z,100700.70
2019-01-02T02:52:36.555Z,100698.47
2019-01-02T02:55:25.725Z,100695.77
2019-01-02T02:57:52.261Z,100698.67
2019-01-02T03:00:26.066Z,100694.84
2019-01-02T03:02:57.225Z,100695.55
2019-01-02T03:05:31.729Z,100695.05
2019-01-02T03:08:02.625Z,100691.09
2019-01-02T03:10:34.015Z,100696.06
2019-01-02T03:13:05.435Z,100689.53
2019-01-02T03:15:37.127Z,100693.35
2019-01-02T03:18:09.208Z,100706.39
2019-01-02T03:20:44.859Z,100713.26
2019-01-02T03:23:20.998Z,100716.59
2019-01-02T03:25:55.109Z,100717.31
2019-01-02T03:28:28.169Z,100721.94
2019-01-02T03:31:02.378Z,100717.38
2019-01-02T03:33:42.458Z,100718.17
2019-01-02T03:36:17.010Z,100727.12
2019-01-02T03:38:51.170Z,100728.66
2019-01-02T03:41:22.508Z,100726.36
2019-01-02T03:43:53.734Z,100732.38
2019-01-02T03:46:24.543Z,100727.20
2019-01-02T03:48:55.485Z,100728.78
2019-01-02T03:51:26.924Z,100732.50
2019-01-02T03:53:58.269Z,100722.47
2019-01-02T03:56:47.432Z,100740.20
2019-01-02T03:59:11.416Z,100730.64
2019-01-02T04:01:43.358Z,100739.88
2019-01-02T04:04:15.848Z,100744.12
2019-01-02T04:06:47.985Z,100739.55
2019-01-02T04:09:24.548Z,100745.46
2019-01-02T04:11:58.215Z,100754.86
2019-01-02T04:14:40.590Z,100747.52
2019-01-02T04:17:14.019Z,100746.95
2019-01-02T04:19:53.176Z,100751.14
2019-01-02T04:22:25.857Z,100758.11
2019-01-02T04:25:03.912Z,100746.75
2019-01-02T04:27:36.438Z,100757.52
2019-01-02T04:30:15.471Z,100744.95
2019-01-02T04:32:46.430Z,100755.25
2019-01-02T04:35:20.464Z,100752.57
2019-01-02T04:37:51.527Z,100756.95
2019-01-02T04:40:26.331Z,100770.55
2019-01-02T04:42:58.504Z,100766.78
2019-01-02T04:45:29.890Z,100772.25
2019-01-02T04:48:01.796Z,100772.57
2019-01-02T04:50:37.117Z,100772.95
2019-01-02T04:53:08.234Z,100771.48
2019-01-02T04:55:42.830Z,100778.50
2019-01-02T04:58:14.251Z,100763.48
2019-01-02T05:00:48.109Z,100767.05
2019-01-02T05:03:26.238Z,100775.34
2019-01-02T05:06:04.960Z,100780.48
2019-01-02T05:08:45.713Z,100782.83
2019-01-02T05:11:17.975Z,100785.73
2019-01-02T05:13:58.429Z,100784.81
2019-01-02T05:16:35.707Z,100795.60
2019-01-02T05:19:08.331Z,100801.48
2019-01-02T05:21:42.344Z,100807.82
2019-01-02T05:24:16.543Z,100800.08
2019-01-02T05:26:50.914Z,100799.45
2019-01-02T05:29:37.674Z,100801.98
2019-01-02T05:32:11.017Z,100803.06
2019-01-02T05:34:52.503Z,100812.13
2019-01-02T05:37:26.951Z,100805.51
2019-01-02T05:40:03.065Z,100815.70
2019-01-02T05:42:39.310Z,100824.16
2019-01-02T05:45:14.714Z,100831.41
2019-01-02T05:47:47.941Z,100834.21
2019-01-02T05:50:18.828Z,100829.77
2019-01-02T05:53:17.374Z,100840.83
2019-01-02T05:55:52.570Z,100842.09
2019-01-02T05:58:23.917Z,100846.94
2019-01-02T06:01:03.175Z,100839.61
2019-01-02T06:03:42.624Z,100850.50
2019-01-02T06:06:27.459Z,100860.90
2019-01-02T06:09:07.336Z,100867.00
2019-01-02T06:11:47.055Z,100853.78
2019-01-02T06:14:28.190Z,100866.50
2019-01-02T06:17:02.481Z,100869.62
2019-01-02T06:19:40.162Z,100873.56
2019-01-02T06:22:19.861Z,100869.44
2019-01-02T06:24:58.169Z,100877.10
2019-01-02T06:27:33.499Z,100881.64
2019-01-02T06:30:11.192Z,100885.16
2019-01-02T06:32:42.898Z,100901.56
2019-01-02T06:35:18.373Z,100896.02
2019-01-02T06:37:57.315Z,100901.20
2019-01-02T06:40:32.628Z,100907.48
2019-01-02T06:43:13.575Z,100916.89
2019-01-02T06:45:49.829Z,100912.41
2019-01-02T06:48:40.259Z,100917.16
2019-01-02T06:51:03.593Z,100928.10
2019-01-02T06:53:38.688Z,100921.02
2019-01-02T06:56:12.751Z,100913.88
2019-01-02T06:58:49.989Z,100924.14
2019-01-02T07:01:27.118Z,100925.75
2019-01-02T07:03:59.839Z,100919.55
2019-01-02T07:06:39.164Z,100932.16
2019-01-02T07:09:16.260Z,100938.55
2019-01-02T07:11:47.407Z,100953.75
2019-01-02T07:14:19.033Z,100951.25
2019-01-02T07:16:58.626Z,100949.41
2019-01-02T07:19:38.272Z,100950.70
2019-01-02T07:22:16.302Z,100945.86
2019-01-02T07:24:50.075Z,100957.04
2019-01-02T07:27:28.771Z,100953.67
2019-01-02T07:30:03.720Z,100945.25
2019-01-02T07:32:42.603Z,100961.49
2019-01-02T07:36:17.085Z,100959.18
2019-01-02T07:40:14.670Z,100970.89
2019-01-02T07:44:08.667Z,100979.37
2019-01-02T07:48:06.604Z,100982.66
2019-01-02T07:51:43.975Z,100985.42
2019-01-02T07:55:06.670Z,100994.75
2019-01-02T07:59:11.255Z,100999.42
2019-01-02T08:02:55.688Z,100995.58
2019-01-02T08:06:38.108Z,100999.81
2019-01-02T08:09:51.578Z,100999.76
2019-01-02T08:13:17.758Z,101018.45
2019-01-02T08:16:33.033Z,101022.98
2019-01-02T08:20:35.186Z,101039.96
2019-01-02T08:24:19.753Z,101062.66
2019-01-02T08:27:50.373Z,101047.45
2019-01-02T08:31:30.770Z,101052.91
2019-01-02T08:35:00.453Z,101073.12
2019-01-02T08:38:51.284Z,101080.45
2019-01-02T08:42:39.242Z,101085.50
2019-01-02T08:45:58.883Z,101087.39
2019-01-02T08:50:25.967Z,101107.47
2019-01-02T08:53:10.302Z,101135.28
2019-01-02T08:56:33.232Z,101127.09
2019-01-02T08:59:59.889Z,101116.32
2019-01-02T09:03:01.196Z,101121.72
2019-01-02T09:06:21.903Z,101127.38
2019-01-02T09:09:48.376Z,101123.38
2019-01-02T09:13:19.162Z,101128.31
2019-01-02T09:16:38.873Z,101135.73
2019-01-02T09:20:11.734Z,101130.89
2019-01-02T09:23:28.639Z,101136.32
2019-01-02T09:26:55.938Z,101138.07
2019-01-02T09:30:44.419Z,101150.00
2019-01-02T09:34:07.748Z,101141.92
2019-01-02T09:37:56.514Z,101142.67
2019-01-02T09:41:07.990Z,101152.90
2019-01-02T09:44:37.756Z,101152.55
2019-01-02T09:48:28.173Z,101165.72
2019-01-02T09:51:52.759Z,101158.73
2019-01-02T09:55:28.927Z,101162.58
2019-01-02T09:58:43.756Z,101173.08
2019-01-02T10:02:07.621Z,101175.85
2019-01-02T10:05:34.359Z,101169.48
2019-01-02T10:09:23.493Z,101181.58
2019-01-02T10:12:56.623Z,101177.73
2019-01-02T10:16:21.299Z,101179.41
2019-01-02T10:19:42.671Z,101188.75
2019-01-02T10:23:15.811Z,101200.74
2019-01-02T10:26:46.001Z,101192.22
2019-01-02T10:34:17.233Z,101197.20
2019-01-02T10:37:41.676Z,101203.52
2019-01-02T10:41:46.774Z,101204.14
2019-01-02T10:45:11.691Z,101204.49
2019-01-02T10:48:37.312Z,101203.92
2019-01-02T10:52:40.181Z,101220.81
2019-01-02T10:56:37.809Z,101212.36
2019-01-02T11:00:14.213Z,101215.36
2019-01-02T11:03:49.271Z,101223.97
2019-01-02T11:07:14.899Z,101228.39
2019-01-02T11:11:12.715Z,101221.66
2019-01-02T11:18:22.440Z,101231.54
2019-01-02T11:22:36.708Z,101239.02
2019-01-02T11:29:35.534Z,101246.50
2019-01-02T11:33:26.240Z,101253.52
2019-01-02T11:37:08.158Z,101246.38
2019-01-02T11:40:46.339Z,101256.48
2019-01-02T11:44:26.661Z,101257.16
2019-01-02T11:47:07.734Z,101252.85
2019-01-02T11:50:00.391Z,101253.97
2019-01-02T11:52:59.838Z,101260.25
2019-01-02T11:56:27.956Z,101268.77
2019-01-02T11:58:37.181Z,101250.28
2019-01-02T12:01:11.318Z,101270.78
2019-01-02T12:04:28.353Z,101259.37
2019-01-02T12:06:50.618Z,101274.47
2019-01-02T12:09:49.925Z,101273.61
2019-01-02T12:12:29.639Z,101272.81
2019-01-02T12:15:23.355Z,101274.37
2019-01-02T12:18:10.355Z,101272.19
2019-01-02T12:20:46.702Z,101277.34
2019-01-02T12:23:27.229Z,101276.98
2019-01-02T12:26:04.854Z,101284.84
2019-01-02T12:29:17.537Z,101290.52
2019-01-02T12:35:47.520Z,101281.18
2019-01-02T12:38:28.203Z,101294.71
2019-01-02T12:41:28.564Z,101297.11
2019-01-02T12:43:59.496Z,101298.13
2019-01-02T12:46:51.658Z,101299.51
2019-01-02T12:49:28.513Z,101312.95
2019-01-02T12:52:18.786Z,101311.22
2019-01-02T12:55:09.164Z,101317.41
2019-01-02T12:58:06.301Z,101332.18
2019-01-02T13:04:55.532Z,101335.52
2019-01-02T13:08:25.834Z,101349.08
2019-01-02T13:11:16.684Z,101355.61
2019-01-02T13:14:43.295Z,101360.06
2019-01-02T13:17:43.454Z,101362.69
2019-01-02T13:20:59.501Z,101363.66
2019-01-02T13:24:27.496Z,101375.47
2019-01-02T13:27:39.517Z,101374.80
2019-01-02T13:31:24.130Z,101385.98
2019-01-02T13:35:01.590Z,101383.33
2019-01-02T13:38:39.264Z,101384.70
2019-01-02T13:41:56.972Z,101390.91
2019-01-02T13:45:25.848Z,101403.92
2019-01-02T13:48:49.926Z,101406.62
2019-01-02T13:51:50.128Z,101404.75
2019-01-02T13:54:25.713Z,101407.41
2019-01-02T13:57:01.936Z,101411.27
2019-01-02T13:59:41.292Z,101411.62
2019-01-02T14:02:16.258Z,101414.88
2019-01-02T14:04:56.532Z,101436.48
2019-01-02T14:07:40.202Z,101425.30
2019-01-02T14:10:15.282Z,101425.38
2019-01-02T14:12:55.962Z,101418.81
2019-01-02T14:16:20.950Z,101440.80
2019-01-02T14:19:26.264Z,101437.55
2019-01-02T14:22:16.630Z,101442.55
2019-01-02T14:25:00.389Z,101442.86
2019-01-02T14:32:32.778Z,101442.14
2019-01-02T14:34:46.948Z,101446.16
2019-01-02T14:37:31.294Z,101448.86
2019-01-02T14:40:00.396Z,101446.02
2019-01-02T14:46:31.604Z,101448.92
2019-01-02T14:49:35.539Z,101451.12
2019-01-02T14:55:22.800Z,101460.93
2019-01-02T14:58:16.043Z,101464.33
2019-01-02T15:01:29.417Z,101468.25
2019-01-02T15:04:12.845Z,101472.30
2019-01-02T15:07:27.145Z,101485.94
2019-01-02T15:13:55.342Z,101495.38
2019-01-02T15:16:34.575Z,101500.63
2019-01-02T15:19:14.354Z,101511.06
2019-01-02T15:22:05.868Z,101509.94
2019-01-02T15:25:11.640Z,101517.45
2019-01-02T15:27:49.008Z,101525.83
2019-01-02T15:31:06.118Z,101524.97
2019-01-02T15:33:40.600Z,101528.02
2019-01-02T15:36:28.990Z,101535.27
2019-01-02T15:39:24.442Z,101532.64
2019-01-02T15:42:11.342Z,101543.16
2019-01-02T15:44:55.595Z,101542.16
2019-01-02T15:48:16.468Z,101532.30
2019-01-02T15:52:26.457Z,101547.08
2019-01-02T15:54:31.360Z,101548.47
2019-01-02T15:57:17.244Z,101549.84
2019-01-02T15:59:57.100Z,101556.98
2019-01-02T16:03:30.220Z,101565.07
2019-01-02T16:05:46.984Z,101571.09
2019-01-02T16:08:53.298Z,101578.78
2019-01-02T16:11:47.462Z,101576.08
2019-01-02T16:16:31.414Z,101574.12
2019-01-02T16:19:06.639Z,101589.72
2019-01-02T16:22:27.294Z,101588.20
2019-01-02T16:28:55.474Z,101608.28
2019-01-02T16:33:03.752Z,101606.20
2019-01-02T16:35:08.881Z,101605.28
2019-01-02T16:38:13.860Z,101606.31
2019-01-02T16:41:11.286Z,101615.20
2019-01-02T16:43:51.743Z,101618.12
2019-01-02T16:46:31.584Z,101620.16
2019-01-02T16:50:24.347Z,101629.49
2019-01-02T16:55:53.891Z,101633.98
2019-01-02T16:58:57.376Z,101644.66
2019-01-02T17:01:59.200Z,101646.73
2019-01-02T17:04:48.782Z,101642.80
2019-01-02T17:10:35.976Z,101657.98
2019-01-02T17:13:28.468Z,101659.98
2019-01-02T17:16:27.032Z,101663.89
2019-01-02T17:19:32.807Z,101661.98
2019-01-02T17:22:50.575Z,101672.55
2019-01-02T17:25:42.916Z,101675.50
2019-01-02T17:28:32.157Z,101674.91
2019-01-02T17:31:38.778Z,101680.66
2019-01-02T17:34:47.289Z,101683.73
2019-01-02T17:37:28.057Z,101684.96
2019-01-02T17:40:20.052Z,101689.00
2019-01-02T17:42:58.189Z,101683.53
2019-01-02T17:45:59.392Z,101686.70
2019-01-02T17:48:44.426Z,101688.16
2019-01-02T17:51:53.250Z,101691.41
2019-01-02T17:55:08.097Z,101695.86
2019-01-02T18:01:17.075Z,101687.80
2019-01-02T18:07:49.052Z,101695.62
2019-01-02T18:10:50.588Z,101711.02
2019-01-02T18:13:57.229Z,101705.28
2019-01-02T18:17:39.808Z,101719.80
2019-01-02T18:19:57.372Z,101724.23
2019-01-02T18:22:38.650Z,101722.40
2019-01-02T18:25:20.195Z,101737.59
2019-01-02T18:28:30.051Z,101731.72
2019-01-02T18:31:16.376Z,101740.42
2019-01-02T18:33:55.931Z,101749.91
2019-01-02T18:36:31.938Z,101756.25
2019-01-02T18:39:27.712Z,101756.72
2019-01-02T18:42:21.171Z,101755.85
2019-01-02T18:46:17.609Z,101759.21
2019-01-02T18:50:53.179Z,101771.39
2019-01-02T18:55:29.607Z,101774.87
2019-01-02T18:58:11.491Z,101780.94
2019-01-02T19:01:04.805Z,101782.65
2019-01-02T19:03:47.005Z,101790.13
2019-01-02T19:06:35.308Z,101796.30
2019-01-02T19:09:22.626Z,101794.34
2019-01-02T19:12:00.953Z,101790.58
2019-01-02T19:15:07.968Z,101798.29
2019-01-02T19:18:38.927Z,101799.41
2019-01-02T19:21:31.303Z,101813.72
2019-01-02T19:25:25.968Z,101809.89
2019-01-02T19:28:11.244Z,101814.23
2019-01-02T19:32:55.352Z,101825.04
2019-01-02T19:34:57.708Z,101821.62
2019-01-02T19:37:39.521Z,101823.81
2019-01-02T19:40:50.736Z,101828.70
2019-01-02T19:44:06.065Z,101830.84
2019-01-02T19:49:49.576Z,101837.34
2019-01-02T19:52:36.943Z,101844.02
2019-01-02T19:54:59.994Z,101849.34
2019-01-02T19:58:12.211Z,101856.59
2019-01-02T20:01:09.284Z,101855.38
2019-01-02T20:04:35.679Z,101857.23
2019-01-02T20:07:32.384Z,101858.80
2019-01-02T20:11:00.541Z,101859.39
2019-01-02T20:14:48.281Z,101860.95
2019-01-02T20:16:45.741Z,101864.87
2019-01-02T20:19:56.307Z,101858.49
2019-01-02T20:22:35.921Z,101860.73
2019-01-02T20:25:17.163Z,101856.16
2019-01-02T20:28:13.038Z,101851.14
2019-01-02T20:30:50.505Z,101858.59
2019-01-02T20:34:28.855Z,101853.38
2019-01-02T20:36:14.763Z,101851.69
2019-01-02T20:38:57.874Z,101850.94
2019-01-02T20:41:49.678Z,101849.47
2019-01-02T20:44:26.473Z,101851.05
2019-01-02T20:47:15.261Z,101849.70
2019-01-02T20:49:59.399Z,101856.69
2019-01-02T20:52:47.757Z,101855.80
2019-01-02T20:55:39.174Z,101853.91
2019-01-02T20:58:49.709Z,101854.09
2019-01-02T21:01:26.694Z,101856.94
2019-01-02T21:04:11.169Z,101852.65
2019-01-02T21:07:10.372Z,101855.98
2019-01-02T21:10:09.351Z,101862.16
2019-01-02T21:12:50.029Z,101862.52
2019-01-02T21:16:06.319Z,101859.49
2019-01-02T21:18:38.876Z,101864.11
2019-01-02T21:21:39.946Z,101855.99
2019-01-02T21:24:55.187Z,101852.92
2019-01-02T21:27:18.569Z,101854.53
2019-01-02T21:30:06.064Z,101850.09
2019-01-02T21:36:48.795Z,101852.60
2019-01-02T21:39:41.378Z,101853.57
2019-01-02T21:43:15.277Z,101855.86
2019-01-02T21:46:54.869Z,101848.94
2019-01-02T21:53:47.235Z,101841.14
2019-01-02T22:08:14.852Z,101854.61
2019-01-02T22:11:33.947Z,101846.16
2019-01-02T22:14:56.448Z,101850.89
2019-01-02T22:20:18.811Z,101852.25
2019-01-02T22:22:58.007Z,101851.54
2019-01-02T22:25:45.676Z,101851.99
2019-01-02T22:28:32.010Z,101852.38
2019-01-02T22:31:18.589Z,101860.33
2019-01-02T22:33:50.378Z,101852.48
2019-01-02T22:36:59.468Z,101854.83
2019-01-02T22:40:03.352Z,101853.73
2019-01-02T22:42:51.261Z,101859.19
2019-01-02T22:45:24.702Z,101855.19
2019-01-02T22:47:57.877Z,101863.16
2019-01-02T22:51:42.823Z,101873.44
2019-01-02T22:54:19.941Z,101874.72
2019-01-02T22:56:59.817Z,101875.06
2019-01-02T23:03:48.604Z,101874.28
2019-01-02T23:07:01.735Z,101879.81
2019-01-02T23:11:11.758Z,101881.89
2019-01-02T23:14:42.313Z,101882.39
2019-01-02T23:22:45.127Z,101891.59
2019-01-02T23:26:07.561Z,101889.92
2019-01-02T23:29:34.308Z,101896.09
2019-01-02T23:32:42.234Z,101894.00
2019-01-02T23:36:17.788Z,101900.17
2019-01-02T23:41:50.479Z,101913.00
2019-01-02T23:46:40.501Z,101910.77
2019-01-02T23:49:35.971Z,101920.92
2019-01-02T23:53:08.988Z,101920.34
2019-01-02T23:56:15.448Z,101917.46
